Montgomery Regional Airport Airport (MGM)

Airport Diagram
Current Weather/Forecast (VFR Conditions)
METAR KMGM 191653Z 00000KT 10SM CLR 29/22 A3008 RMK AO2 SLP181 T02890217
TAF KMGM 191140Z 1912/2012 00000KT P6SM OVC090 FM191800 20006KT P6SM OVC040 FM192100 VRB04KT 6SM SHRA BR OVC040 PROB30 1921/2003 VRB10G20KT 6SM TSRA BR OVC040CB FM200300 VRB03KT P6SM BKN045 FM200500 VRB03KT P6SM BKN026 FM200600 00000KT P6SM BKN013

All Charts
General
Chart Name Download
AIRPORT DIAGRAM
TAKEOFF MINIMUMS
ALTERNATE MINIMUMS
HOT SPOT

Approaches
Chart Name Download
HI-ILS Y OR LOC Y RWY 10
ILS Y OR LOC RWY 28
ILS Z OR LOC Z RWY 10
ILS Z RWY 28
RNAV (GPS) RWY 03
RNAV (GPS) RWY 10
RNAV (GPS) RWY 28
VOR-A
HI-TACAN-J
NDB RWY 10


Inbound Traffic (Arrivals)

No inbound traffic.


Outbound Traffic (Departures)

No outbound traffic.